Fallon, NV

10:23 AM PDT on May 30, 2015 (GMT -0700)
East Fallon | | Change Station
CLOSE
Current Station
Personal Weather Station
Location: Fallon, NV
Elevation: 3980 ft
Nearby Weather Stations

Elev 3980 ft 39.48 °N, 118.77 °W | Updated 3 minutes ago

Mostly Cloudy
Mostly Cloudy
82.2 °F
Feels Like 80 °F
N
0.0
Wind Variable Wind from ESE

Today
High -- | Low -- °F
--% Chance of Precip.
Yesterday
High -- | Low -- °F
Precip. -- in
5:30 AM 8:14 PM
Waxing Gibbous, 91% visible
Pressure 29.95 in
Visibility 10.0 miles
Clouds Few 6000 ft
Scattered Clouds 12000 ft
Mostly Cloudy 22000 ft
Heat Index 80 °F
Dew Point 40 °F
Humidity 22%
Rainfall 0.00 in
Snow Depth Not available.
UV 4 out of 12
Pollen 7.20 out of 12
Air Quality Not available.
Flu Activity Sporadic
METAR KNFL 301656Z 00000KT 10SM FEW060 SCT120 BKN220 25/00 A3004 RMK AO2 SLP141 T02500000

More Conditions Fewer Conditions

Pressure 29.95 in
Visibility 10.0 miles
Clouds Few 6000 ft
Scattered Clouds 12000 ft
Mostly Cloudy 22000 ft
Heat Index 80 °F
Dew Point 40 °F
Humidity 22%
Rainfall 0.00 in
Snow Depth Not available.
UV 4 out of 12
Pollen 7.20 out of 12
Air Quality Not available.
Flu Activity Sporadic
METAR KNFL 301656Z 00000KT 10SM FEW060 SCT120 BKN220 25/00 A3004 RMK AO2 SLP141 T02500000

More Conditions Fewer Conditions

10-Day Weather Forecast

Almanac

Astronomy

May. 30, 2015 Rise Set
Actual Time
Civil Twilight
Nautical Twilight
Astronomical Twilight
Moon
Length of Visible Light
Length of Day
Tomorrow will be .
, % of the Moon is Illuminated

Today's Extremes

State Highs State Lows

Community

WunderPhotos

Upload Photos

1,825,578 photos uploaded!

WunderBlogs® & News

Nearby

Air Quality

  Air Quality AQ Index Pollutant
Not available.

Snow Depth

Station Depth Elevation

Earthquake Activity

City Distance Mag. Time & Date
Minimum magnitude displayed is 2.5.

Coastal Water Temperatures

Place Temperature

Stations

Nearby Weather Stations

Station Location Temp. Windchill Dew Point Humidity Wind Precip. Elev Updated Type